createdAt,value
2022-11-29T00:00:03.532Z,7.44
2022-11-29T00:01:02.136Z,7.42
2022-11-29T00:02:02.168Z,7.44
2022-11-29T00:03:02.159Z,7.45
2022-11-29T00:04:02.096Z,7.42
2022-11-29T00:05:02.069Z,7.42
2022-11-29T00:06:02.088Z,7.42
2022-11-29T00:07:02.066Z,7.45
2022-11-29T00:08:02.067Z,7.44
2022-11-29T00:09:02.025Z,7.47
2022-11-29T00:10:02.049Z,7.45
2022-11-29T00:11:02.032Z,7.47
2022-11-29T00:12:02.019Z,7.47
2022-11-29T00:13:02.016Z,7.49
2022-11-29T00:14:02.009Z,7.45
2022-11-29T00:15:01.966Z,7.50
2022-11-29T00:16:01.963Z,7.49
2022-11-29T00:17:02.617Z,7.47
2022-11-29T00:18:02.070Z,7.49
2022-11-29T00:19:01.961Z,7.49
2022-11-29T00:20:01.933Z,7.49
2022-11-29T00:21:01.939Z,7.50
2022-11-29T00:22:01.938Z,7.50
2022-11-29T00:23:01.911Z,7.49
2022-11-29T00:24:01.941Z,7.50
2022-11-29T00:25:01.882Z,7.49
2022-11-29T00:26:01.876Z,7.49
2022-11-29T00:27:01.869Z,7.52
2022-11-29T00:28:01.848Z,7.53
2022-11-29T00:29:01.867Z,7.53
2022-11-29T00:30:01.842Z,7.55
2022-11-29T00:31:01.861Z,7.55
2022-11-29T00:32:01.802Z,7.56
2022-11-29T00:33:01.823Z,7.55
2022-11-29T00:34:01.799Z,7.55
2022-11-29T00:35:06.649Z,7.52
2022-11-29T00:36:01.867Z,7.56
2022-11-29T00:37:01.757Z,7.58
2022-11-29T00:38:01.738Z,7.55
2022-11-29T00:39:01.727Z,7.58
2022-11-29T00:40:01.727Z,7.58
2022-11-29T00:41:01.728Z,7.58
2022-11-29T00:42:01.712Z,7.56
2022-11-29T00:43:01.710Z,7.55
2022-11-29T00:44:01.691Z,7.58
2022-11-29T00:45:01.699Z,7.58
2022-11-29T00:46:01.701Z,7.60
2022-11-29T01:49:52.522Z,7.71
2022-11-29T01:50:53.604Z,7.71
2022-11-29T01:51:53.272Z,7.71
2022-11-29T01:52:53.155Z,7.69
2022-11-29T01:53:53.244Z,7.71
2022-11-29T01:54:53.188Z,7.67
2022-11-29T01:55:53.290Z,7.62
2022-11-29T01:56:53.091Z,7.62
2022-11-29T01:57:53.122Z,7.59
2022-11-29T01:58:53.198Z,7.60
2022-11-29T01:59:53.084Z,7.60
2022-11-29T02:00:53.098Z,7.60
2022-11-29T02:01:53.054Z,7.60
2022-11-29T02:02:53.165Z,7.59
2022-11-29T02:03:53.062Z,7.59
2022-11-29T02:04:53.006Z,7.60
2022-11-29T02:05:53.005Z,7.58
2022-11-29T02:06:53.031Z,7.59
2022-11-29T02:07:53.042Z,7.58
2022-11-29T02:08:52.974Z,7.59
2022-11-29T02:09:53.088Z,7.59
2022-11-29T02:10:52.954Z,7.59
2022-11-29T02:11:52.946Z,7.59
2022-11-29T02:12:52.910Z,7.58
2022-11-29T02:13:52.965Z,7.59
2022-11-29T02:14:52.927Z,7.62
2022-11-29T02:15:52.954Z,7.62
2022-11-29T02:16:56.528Z,7.62
2022-11-29T02:17:52.879Z,7.62
2022-11-29T02:18:52.954Z,7.62
2022-11-29T02:19:52.995Z,7.67
2022-11-29T02:20:52.858Z,7.66
2022-11-29T02:21:52.873Z,7.66
2022-11-29T02:22:52.948Z,7.69
2022-11-29T02:23:52.823Z,7.69
2022-11-29T02:24:52.808Z,7.69
2022-11-29T02:25:52.815Z,7.69
2022-11-29T02:26:52.783Z,7.71
2022-11-29T02:27:52.796Z,7.72
2022-11-29T02:28:52.763Z,7.71
2022-11-29T02:29:52.764Z,7.74
2022-11-29T02:30:52.894Z,7.74
2022-11-29T02:31:52.744Z,7.74
2022-11-29T02:32:52.715Z,7.75
2022-11-29T02:33:52.707Z,7.75
2022-11-29T02:34:52.686Z,7.77
2022-11-29T02:35:52.722Z,7.79
2022-11-29T02:36:52.692Z,7.77
2022-11-29T02:37:52.666Z,7.79
2022-11-29T02:38:52.717Z,7.78
2022-11-29T02:39:52.649Z,7.78
2022-11-29T02:40:52.662Z,7.78
2022-11-29T02:41:52.644Z,7.79
2022-11-29T02:42:56.806Z,7.79
2022-11-29T02:43:52.645Z,7.79
2022-11-29T02:44:52.591Z,7.77
2022-11-29T02:45:52.617Z,7.77
2022-11-29T02:46:52.581Z,7.75
2022-11-29T02:47:52.563Z,7.72
2022-11-29T02:48:52.565Z,7.72
2022-11-29T02:49:52.595Z,7.67
2022-11-29T02:50:52.572Z,7.67
2022-11-29T02:51:52.541Z,7.67
2022-11-29T02:52:52.510Z,7.67
2022-11-29T02:53:52.539Z,7.69
2022-11-29T02:54:52.486Z,7.66
2022-11-29T02:55:52.472Z,7.63
2022-11-29T02:56:52.477Z,7.66
2022-11-29T02:57:52.455Z,7.63
2022-11-29T02:58:52.456Z,7.62
2022-11-29T02:59:52.438Z,7.62
2022-11-29T03:00:52.432Z,7.60
2022-11-29T03:01:52.463Z,7.59
2022-11-29T03:02:52.489Z,7.58
2022-11-29T03:03:52.387Z,7.58
2022-11-29T03:04:52.426Z,7.56
2022-11-29T03:05:52.375Z,7.58
2022-11-29T03:06:52.364Z,7.58
2022-11-29T03:07:52.397Z,7.60
2022-11-29T03:08:52.388Z,7.58
2022-11-29T03:09:52.366Z,7.58
2022-11-29T03:10:52.640Z,7.59
2022-11-29T03:11:52.345Z,7.58
2022-11-29T03:12:52.299Z,7.58
2022-11-29T03:13:52.289Z,7.58
2022-11-29T03:14:52.285Z,7.59
2022-11-29T03:15:52.317Z,7.58
2022-11-29T03:16:52.279Z,7.58
2022-11-29T03:17:52.248Z,7.58
2022-11-29T03:18:52.253Z,7.56
2022-11-29T03:19:52.225Z,7.56
2022-11-29T03:20:52.221Z,7.56
2022-11-29T03:21:52.222Z,7.56
2022-11-29T03:22:52.225Z,7.55
2022-11-29T03:23:52.176Z,7.58
2022-11-29T03:24:52.182Z,7.56
2022-11-29T03:25:52.181Z,7.55
2022-11-29T03:26:52.171Z,7.55
2022-11-29T03:27:52.159Z,7.55
2022-11-29T03:28:52.134Z,7.55
2022-11-29T03:29:52.125Z,7.55
2022-11-29T03:30:52.181Z,7.52
2022-11-29T03:31:52.104Z,7.49
2022-11-29T03:32:52.127Z,7.47
2022-11-29T03:33:52.094Z,7.45
2022-11-29T03:34:56.924Z,7.42
2022-11-29T03:35:52.072Z,7.42
2022-11-29T03:36:52.074Z,7.42
2022-11-29T03:37:52.043Z,7.44
2022-11-29T03:38:52.064Z,7.45
2022-11-29T03:39:52.022Z,7.44
2022-11-29T03:40:52.013Z,7.49
2022-11-29T03:41:52.016Z,7.45
2022-11-29T03:42:52.006Z,7.42
2022-11-29T03:43:52.016Z,7.42
2022-11-29T03:44:51.970Z,7.42
2022-11-29T03:45:52.052Z,7.42
2022-11-29T03:46:51.966Z,7.41
2022-11-29T03:47:51.947Z,7.38
2022-11-29T03:48:51.971Z,7.38
2022-11-29T03:49:51.959Z,7.40
2022-11-29T03:50:51.960Z,7.38
2022-11-29T03:51:51.888Z,7.38
2022-11-29T03:52:51.903Z,7.40
2022-11-29T03:53:51.896Z,7.38
2022-11-29T03:54:51.888Z,7.34
2022-11-29T03:55:51.862Z,7.34
2022-11-29T03:56:51.880Z,7.32
2022-11-29T03:57:51.846Z,7.37
2022-11-29T03:58:51.849Z,7.38
2022-11-29T03:59:51.816Z,7.41
2022-11-29T04:00:51.835Z,7.41
2022-11-29T04:01:51.838Z,7.41
2022-11-29T04:02:51.851Z,7.42
2022-11-29T04:03:51.774Z,7.40
2022-11-29T04:04:51.809Z,7.40
2022-11-29T04:05:51.759Z,7.38
2022-11-29T04:06:51.755Z,7.35
2022-11-29T04:07:51.787Z,7.37
2022-11-29T04:08:51.731Z,7.34
2022-11-29T04:09:51.751Z,7.37
2022-11-29T04:10:51.736Z,7.34
2022-11-29T04:11:51.688Z,7.34
2022-11-29T04:12:51.739Z,7.34
2022-11-29T04:13:51.666Z,7.34
2022-11-29T04:14:51.687Z,7.34
2022-11-29T04:15:52.468Z,7.32
2022-11-29T04:16:51.671Z,7.38
2022-11-29T04:17:51.642Z,7.38
2022-11-29T04:18:51.705Z,7.40
2022-11-29T04:19:51.684Z,7.44
2022-11-29T04:20:51.611Z,7.42
2022-11-29T04:21:51.592Z,7.44
2022-11-29T04:22:51.630Z,7.44
2022-11-29T04:23:51.594Z,7.45
2022-11-29T04:24:51.585Z,7.44
2022-11-29T04:25:51.573Z,7.45
2022-11-29T04:26:51.548Z,7.42
2022-11-29T04:27:51.554Z,7.44
2022-11-29T04:28:51.555Z,7.42
2022-11-29T04:29:51.533Z,7.49
2022-11-29T04:30:51.599Z,7.49
2022-11-29T04:31:51.556Z,7.52
2022-11-29T04:32:51.514Z,7.49
2022-11-29T04:33:51.555Z,7.53
2022-11-29T04:34:51.485Z,7.52
2022-11-29T04:35:51.462Z,7.47
2022-11-29T04:36:51.441Z,7.49
2022-11-29T04:37:51.435Z,7.45
2022-11-29T04:38:51.454Z,7.45
2022-11-29T04:39:51.401Z,7.45
2022-11-29T04:40:51.405Z,7.44
2022-11-29T04:41:51.490Z,7.42
2022-11-29T04:42:51.417Z,7.42
2022-11-29T04:43:51.367Z,7.44
2022-11-29T04:44:51.401Z,7.45
2022-11-29T04:45:51.357Z,7.47
2022-11-29T04:46:51.355Z,7.49
2022-11-29T04:50:31.076Z,7.47
2022-11-29T04:51:31.864Z,7.45
2022-11-29T04:52:31.839Z,7.47
2022-11-29T04:53:31.836Z,7.49
2022-11-29T04:54:31.824Z,7.49
2022-11-29T04:55:31.800Z,7.52
2022-11-29T04:56:31.780Z,7.50
2022-11-29T04:57:31.753Z,7.47
2022-11-29T04:58:31.712Z,7.47
2022-11-29T04:59:31.751Z,7.49
2022-11-29T05:00:31.773Z,7.47
2022-11-29T05:01:31.735Z,7.45
2022-11-29T05:02:31.737Z,7.44
2022-11-29T05:03:31.703Z,7.44
2022-11-29T05:04:31.729Z,7.44
2022-11-29T05:05:31.672Z,7.45
2022-11-29T05:06:32.571Z,7.49
2022-11-29T05:07:31.693Z,7.50
2022-11-29T05:08:32.585Z,7.50
2022-11-29T05:09:31.665Z,7.45
2022-11-29T05:10:32.598Z,7.49
2022-11-29T05:11:31.636Z,7.45
2022-11-29T05:12:32.460Z,7.50
2022-11-29T05:13:31.619Z,7.50
2022-11-29T05:14:32.089Z,7.50
2022-11-29T05:15:31.583Z,7.47
2022-11-29T05:16:31.734Z,7.45
2022-11-29T05:17:31.540Z,7.45
2022-11-29T05:18:32.489Z,7.44
2022-11-29T05:19:31.520Z,7.42
2022-11-29T05:20:32.476Z,7.44
2022-11-29T05:21:31.526Z,7.42
2022-11-29T05:22:31.817Z,7.42
2022-11-29T05:23:31.495Z,7.45
2022-11-29T05:24:31.529Z,7.44
2022-11-29T05:25:31.496Z,7.45
2022-11-29T05:26:31.441Z,7.42
2022-11-29T05:27:31.453Z,7.42
2022-11-29T05:28:31.427Z,7.44
2022-11-29T05:29:31.414Z,7.41
2022-11-29T05:30:31.427Z,7.44
2022-11-29T05:31:31.456Z,7.40
2022-11-29T05:32:31.369Z,7.40
2022-11-29T05:33:31.379Z,7.38
2022-11-29T05:34:34.919Z,7.35
2022-11-29T05:35:31.382Z,7.32
2022-11-29T05:36:31.340Z,7.31
2022-11-29T05:37:31.349Z,7.31
2022-11-29T05:38:31.326Z,7.32
2022-11-29T05:39:31.324Z,7.27
2022-11-29T05:40:31.304Z,7.26
2022-11-29T05:41:31.310Z,7.26
2022-11-29T05:42:31.283Z,7.23
2022-11-29T05:43:31.275Z,7.23
2022-11-29T05:44:31.259Z,7.22
2022-11-29T05:45:31.441Z,7.20
2022-11-29T05:46:31.420Z,7.20
2022-11-29T05:47:31.661Z,7.19
2022-11-29T05:48:31.208Z,7.19
2022-11-29T05:49:31.214Z,7.17
2022-11-29T05:50:31.200Z,7.16
2022-11-29T05:51:31.208Z,7.16
2022-11-29T05:52:31.195Z,7.13
2022-11-29T06:09:23.644Z,7.07
2022-11-29T06:10:24.583Z,7.07
2022-11-29T06:11:24.574Z,7.02
2022-11-29T06:12:24.516Z,7.04
2022-11-29T06:13:24.687Z,7.04
2022-11-29T06:14:24.513Z,7.04
2022-11-29T06:15:24.467Z,7.02
2022-11-29T06:16:24.484Z,7.04
2022-11-29T06:17:24.488Z,7.02
2022-11-29T06:18:24.448Z,7.05
2022-11-29T06:19:24.433Z,7.07
2022-11-29T06:20:24.435Z,7.05
2022-11-29T06:21:24.396Z,7.07
2022-11-29T06:22:24.441Z,7.04
2022-11-29T06:23:24.388Z,7.05
2022-11-29T06:24:26.128Z,7.02
2022-11-29T06:25:24.367Z,7.02
2022-11-29T06:26:24.365Z,7.01
2022-11-29T06:27:24.345Z,7.01
2022-11-29T06:28:24.349Z,6.99
2022-11-29T06:29:24.318Z,7.04
2022-11-29T06:30:24.339Z,7.02
2022-11-29T06:31:24.335Z,7.02
2022-11-29T06:32:24.346Z,7.01
2022-11-29T06:33:24.301Z,7.02
2022-11-29T06:34:30.367Z,7.02
2022-11-29T06:35:24.320Z,7.02
2022-11-29T06:36:24.259Z,7.02
2022-11-29T06:37:24.298Z,7.04
2022-11-29T06:38:24.243Z,7.04
2022-11-29T06:39:24.231Z,7.01
2022-11-29T06:40:24.243Z,7.04
2022-11-29T06:41:24.220Z,7.04
2022-11-29T06:42:24.207Z,7.04
2022-11-29T06:43:24.241Z,7.02
2022-11-29T06:44:24.215Z,7.04
2022-11-29T06:45:24.160Z,7.05
2022-11-29T06:46:24.256Z,7.02
2022-11-29T06:47:24.075Z,7.04
2022-11-29T06:48:24.083Z,7.05
2022-11-29T06:49:24.101Z,7.07
2022-11-29T06:50:24.063Z,7.08
2022-11-29T06:51:24.075Z,7.09
2022-11-29T06:52:24.061Z,7.12
2022-11-29T06:53:24.033Z,7.15
2022-11-29T06:54:24.041Z,7.17
2022-11-29T06:55:24.032Z,7.19
2022-11-29T06:56:24.000Z,7.19
2022-11-29T06:57:24.006Z,7.19
2022-11-29T06:58:24.033Z,7.17
2022-11-29T06:59:23.970Z,7.15
2022-11-29T07:00:23.977Z,7.16
2022-11-29T07:01:24.042Z,7.17
2022-11-29T07:02:23.968Z,7.19
2022-11-29T07:03:23.946Z,7.17
2022-11-29T07:04:23.930Z,7.20
2022-11-29T07:05:23.913Z,7.20
2022-11-29T07:06:23.918Z,7.19
2022-11-29T07:07:23.907Z,7.20
2022-11-29T07:08:23.881Z,7.22
2022-11-29T07:09:23.887Z,7.22
2022-11-29T07:10:23.931Z,7.23
2022-11-29T07:11:23.841Z,7.24
2022-11-29T07:12:23.839Z,7.27
2022-11-29T07:13:23.834Z,7.31
2022-11-29T07:14:23.834Z,7.34
2022-11-29T07:15:23.792Z,7.34
2022-11-29T07:16:23.859Z,7.34
2022-11-29T07:17:23.787Z,7.35
2022-11-29T07:18:23.798Z,7.35
2022-11-29T07:19:23.775Z,7.41
2022-11-29T07:20:23.755Z,7.45
2022-11-29T07:21:23.750Z,7.47
2022-11-29T07:22:23.746Z,7.47
2022-11-29T07:23:23.790Z,7.50
2022-11-29T07:24:23.710Z,7.49
2022-11-29T07:25:23.700Z,7.52
2022-11-29T07:26:23.723Z,7.50
2022-11-29T07:27:23.684Z,7.50
2022-11-29T07:28:23.670Z,7.50
2022-11-29T07:29:23.687Z,7.45
2022-11-29T07:30:23.656Z,7.50
2022-11-29T07:31:23.688Z,7.49
2022-11-29T07:32:23.643Z,7.52
2022-11-29T07:33:23.650Z,7.52
2022-11-29T07:34:23.624Z,7.53
2022-11-29T07:35:23.609Z,7.52
2022-11-29T07:36:23.634Z,7.53
2022-11-29T07:37:23.597Z,7.55
2022-11-29T07:38:23.595Z,7.56
2022-11-29T07:39:23.566Z,7.56
2022-11-29T07:40:23.554Z,7.58
2022-11-29T07:41:23.538Z,7.58
2022-11-29T07:42:23.529Z,7.58
2022-11-29T07:43:23.553Z,7.59
2022-11-29T07:44:23.524Z,7.58
2022-11-29T07:45:23.497Z,7.59
2022-11-29T07:46:23.535Z,7.56
2022-11-29T07:47:23.466Z,7.56
2022-11-29T07:48:23.538Z,7.56
2022-11-29T07:49:23.467Z,7.58
2022-11-29T07:50:23.453Z,7.58
2022-11-29T07:51:23.443Z,7.55
2022-11-29T07:52:23.435Z,7.56
2022-11-29T07:53:23.450Z,7.58
2022-11-29T07:54:23.500Z,7.60
2022-11-29T07:55:23.406Z,7.59
2022-11-29T07:56:23.382Z,7.63
2022-11-29T07:57:23.412Z,7.60
2022-11-29T07:58:23.461Z,7.60
2022-11-29T07:59:23.384Z,7.62
2022-11-29T08:00:23.400Z,7.62
2022-11-29T08:01:23.413Z,7.60
2022-11-29T08:02:23.398Z,7.58
2022-11-29T08:03:23.317Z,7.60
2022-11-29T08:04:23.324Z,7.58
2022-11-29T08:05:23.345Z,7.60
2022-11-29T08:06:23.305Z,7.62
2022-11-29T08:07:23.371Z,7.62
2022-11-29T08:08:23.312Z,7.66
2022-11-29T08:09:23.305Z,7.67
2022-11-29T08:10:23.328Z,7.69
2022-11-29T08:11:23.223Z,7.71
2022-11-29T08:12:23.257Z,7.71
2022-11-29T08:13:23.242Z,7.63
2022-11-29T08:14:23.234Z,7.62
2022-11-29T08:15:23.185Z,7.59
2022-11-29T08:16:23.242Z,7.56
2022-11-29T08:17:23.171Z,7.55
2022-11-29T08:18:23.158Z,7.55
2022-11-29T08:19:23.185Z,7.56
2022-11-29T08:20:23.148Z,7.58
2022-11-29T08:21:23.130Z,7.59
2022-11-29T08:22:23.115Z,7.62
2022-11-29T08:23:23.123Z,7.62
2022-11-29T08:24:23.120Z,7.63
2022-11-29T08:25:23.100Z,7.62
2022-11-29T08:26:26.871Z,7.63
2022-11-29T08:27:23.067Z,7.66
2022-11-29T08:28:23.059Z,7.66
2022-11-29T08:29:23.082Z,7.67
2022-11-29T08:30:23.113Z,7.66
2022-11-29T08:31:23.080Z,7.66
2022-11-29T08:32:23.034Z,7.67
2022-11-29T08:33:23.008Z,7.67
2022-11-29T08:34:22.994Z,7.69
2022-11-29T08:35:23.074Z,7.75
2022-11-29T08:36:22.976Z,7.74
2022-11-29T08:37:22.952Z,7.75
2022-11-29T08:38:22.976Z,7.71
2022-11-29T08:39:22.938Z,7.62
2022-11-29T08:40:23.084Z,7.58
2022-11-29T08:41:22.939Z,7.58
2022-11-29T08:42:22.951Z,7.60
2022-11-29T08:43:22.911Z,7.63
2022-11-29T08:44:22.893Z,7.71
2022-11-29T08:45:22.924Z,7.71
2022-11-29T08:46:22.998Z,7.74
2022-11-29T08:47:22.867Z,7.72
2022-11-29T08:48:22.919Z,7.72
2022-11-29T08:49:22.858Z,7.72
2022-11-29T08:50:22.848Z,7.71
2022-11-29T08:51:22.850Z,7.75
2022-11-29T08:52:22.825Z,7.75
2022-11-29T08:53:22.798Z,7.75
2022-11-29T08:54:22.802Z,7.74
2022-11-29T08:55:22.779Z,7.78
2022-11-29T08:57:10.155Z,7.74
2022-11-29T08:57:40.174Z,7.72
2022-11-29T08:58:22.762Z,7.78
2022-11-29T08:59:22.743Z,7.77
2022-11-29T09:00:22.873Z,7.79
2022-11-29T09:01:22.926Z,7.81
2022-11-29T09:02:22.828Z,7.81
2022-11-29T09:03:22.703Z,7.78
2022-11-29T09:04:22.709Z,7.81
2022-11-29T09:05:22.707Z,7.82
2022-11-29T09:06:22.682Z,7.87
2022-11-29T09:07:22.694Z,7.85
2022-11-29T09:08:22.658Z,7.82
2022-11-29T09:09:22.650Z,7.81
2022-11-29T09:10:22.664Z,7.78
2022-11-29T09:11:22.641Z,7.79
2022-11-29T09:12:22.636Z,7.84
2022-11-29T09:13:22.599Z,7.81
2022-11-29T09:14:22.604Z,7.79
2022-11-29T09:15:22.563Z,7.79
2022-11-29T09:16:22.637Z,7.82
2022-11-29T09:17:22.577Z,7.79
2022-11-29T09:18:22.583Z,7.79
2022-11-29T09:19:22.541Z,7.82
2022-11-29T09:20:22.559Z,7.82
2022-11-29T09:21:22.508Z,7.82
2022-11-29T09:22:22.727Z,7.81
2022-11-29T09:23:22.500Z,7.81
2022-11-29T09:24:22.504Z,7.81
2022-11-29T09:25:22.478Z,7.85
2022-11-29T09:26:22.480Z,7.89
2022-11-29T09:27:22.476Z,7.89
2022-11-29T09:28:22.458Z,7.89
2022-11-29T09:29:22.432Z,7.94
2022-11-29T09:30:23.889Z,7.97
2022-11-29T09:31:22.493Z,8.02
2022-11-29T09:32:22.401Z,8.00
2022-11-29T09:33:22.408Z,7.99
2022-11-29T09:34:22.425Z,7.96
2022-11-29T09:35:22.374Z,7.92
2022-11-29T09:36:27.884Z,7.87
2022-11-29T09:37:22.370Z,7.85
2022-11-29T09:38:22.492Z,7.82
2022-11-29T09:39:22.319Z,7.82
2022-11-29T09:40:22.334Z,7.75
2022-11-29T09:41:22.311Z,7.67
2022-11-29T09:42:22.449Z,7.60
2022-11-29T09:43:22.307Z,7.62
2022-11-29T09:44:22.319Z,7.62
2022-11-29T09:45:22.312Z,7.60
2022-11-29T09:46:22.362Z,7.63
2022-11-29T09:47:22.251Z,7.63
2022-11-29T09:48:22.266Z,7.66
2022-11-29T09:49:22.276Z,7.69
2022-11-29T09:50:22.231Z,7.67
2022-11-29T09:51:22.237Z,7.71
2022-11-29T09:52:22.206Z,7.74
2022-11-29T09:53:22.199Z,7.72
2022-11-29T09:54:22.209Z,7.71
2022-11-29T09:55:22.179Z,7.77
2022-11-29T09:56:22.186Z,7.78
2022-11-29T09:57:22.158Z,7.78
2022-11-29T09:58:22.139Z,7.78
2022-11-29T09:59:22.142Z,7.78
2022-11-29T10:00:22.159Z,7.82
2022-11-29T10:01:22.173Z,7.82
2022-11-29T10:02:22.328Z,7.82
2022-11-29T10:03:22.114Z,7.84
2022-11-29T10:04:22.076Z,7.85
2022-11-29T10:05:22.095Z,7.81
2022-11-29T10:06:22.083Z,7.81
2022-11-29T10:07:22.097Z,7.84
2022-11-29T10:08:22.043Z,7.81
2022-11-29T10:09:22.016Z,7.84
2022-11-29T10:10:22.039Z,7.82
2022-11-29T10:11:22.001Z,7.84
2022-11-29T10:12:22.007Z,7.84
2022-11-29T10:13:22.009Z,7.81
2022-11-29T10:14:21.995Z,7.81
2022-11-29T10:15:21.970Z,7.87
2022-11-29T10:16:22.054Z,7.90
2022-11-29T10:17:21.946Z,7.92
2022-11-29T10:18:21.943Z,7.87
2022-11-29T10:19:21.986Z,7.85
2022-11-29T10:20:21.935Z,7.85
2022-11-29T10:21:21.920Z,7.81
2022-11-29T10:22:21.898Z,7.79
2022-11-29T10:23:21.930Z,7.81
2022-11-29T10:24:21.872Z,7.82
2022-11-29T10:25:21.866Z,7.82
2022-11-29T10:26:21.895Z,7.79
2022-11-29T10:27:21.847Z,7.74
2022-11-29T10:28:21.826Z,7.77
2022-11-29T10:29:21.825Z,7.75
2022-11-29T10:30:21.818Z,7.78
2022-11-29T10:31:21.840Z,7.81
2022-11-29T10:32:21.813Z,7.81
2022-11-29T10:33:22.635Z,7.81
2022-11-29T10:34:21.772Z,7.85
2022-11-29T10:35:21.794Z,7.85
2022-11-29T10:36:21.760Z,7.82
2022-11-29T10:37:21.797Z,7.81
2022-11-29T10:38:30.750Z,7.77
2022-11-29T10:39:21.763Z,7.75
2022-11-29T10:40:21.717Z,7.78
2022-11-29T10:41:21.720Z,7.81
2022-11-29T10:42:21.713Z,7.79
2022-11-29T10:43:21.701Z,7.85
2022-11-29T10:44:21.680Z,7.82
2022-11-29T10:45:21.691Z,7.84
2022-11-29T10:46:21.706Z,7.84
2022-11-29T10:47:21.658Z,7.82
2022-11-29T10:48:21.641Z,7.79
2022-11-29T10:49:21.645Z,7.79
2022-11-29T10:50:21.607Z,7.78
2022-11-29T10:51:21.619Z,7.75
2022-11-29T10:52:21.621Z,7.78
2022-11-29T10:53:21.592Z,7.82
2022-11-29T10:54:21.577Z,7.81
2022-11-29T10:55:21.615Z,7.84
2022-11-29T10:56:21.571Z,7.84
2022-11-29T10:57:21.566Z,7.87
2022-11-29T10:58:27.474Z,7.92
2022-11-29T10:59:21.561Z,7.85
2022-11-29T11:00:21.526Z,7.87
2022-11-29T11:01:21.568Z,7.84
2022-11-29T11:02:21.506Z,7.79
2022-11-29T11:03:21.516Z,7.79
2022-11-29T11:04:21.475Z,7.84
2022-11-29T11:05:21.505Z,7.87
2022-11-29T11:06:22.258Z,7.85
2022-11-29T11:07:21.475Z,7.89
2022-11-29T11:08:21.435Z,7.85
2022-11-29T11:09:21.420Z,7.85
2022-11-29T11:10:21.420Z,7.87
2022-11-29T11:11:21.402Z,7.85
2022-11-29T11:12:21.381Z,7.90
2022-11-29T11:13:21.389Z,7.89
2022-11-29T11:14:21.369Z,7.89
2022-11-29T11:15:21.394Z,7.90
2022-11-29T11:16:21.382Z,7.90
2022-11-29T11:17:21.360Z,7.89
2022-11-29T11:18:21.330Z,7.90
2022-11-29T11:19:21.320Z,7.90
2022-11-29T11:20:21.308Z,7.90
2022-11-29T11:21:21.401Z,7.87
2022-11-29T11:22:21.292Z,7.87
2022-11-29T11:23:21.285Z,7.90
2022-11-29T11:24:21.293Z,7.89
2022-11-29T11:25:21.248Z,7.89
2022-11-29T11:26:21.238Z,7.90
2022-11-29T11:27:21.245Z,7.92
2022-11-29T11:28:21.269Z,7.94
2022-11-29T11:29:21.226Z,7.97
2022-11-29T11:30:21.202Z,7.97
2022-11-29T11:31:21.252Z,7.96
2022-11-29T11:32:21.192Z,7.96
2022-11-29T11:33:21.205Z,7.96
2022-11-29T11:34:21.184Z,7.97
2022-11-29T11:35:21.190Z,7.96
2022-11-29T11:36:21.135Z,7.93
2022-11-29T11:37:21.156Z,7.94
2022-11-29T11:38:21.107Z,7.96
2022-11-29T11:39:21.121Z,7.96
2022-11-29T11:40:21.204Z,7.94
2022-11-29T11:41:21.109Z,7.97
2022-11-29T11:42:21.105Z,7.97
2022-11-29T11:43:21.081Z,7.99
2022-11-29T11:44:45.917Z,7.99
2022-11-29T11:45:21.068Z,7.97
2022-11-29T11:46:21.073Z,7.96
2022-11-29T11:47:21.071Z,7.94
2022-11-29T11:48:21.034Z,7.93
2022-11-29T11:49:21.028Z,7.93
2022-11-29T11:50:21.009Z,7.93
2022-11-29T11:51:21.015Z,7.93
2022-11-29T11:52:21.019Z,7.96
2022-11-29T11:53:20.992Z,7.97
2022-11-29T11:54:20.972Z,7.97
2022-11-29T11:55:20.970Z,7.97
2022-11-29T11:56:20.949Z,7.97
2022-11-29T11:57:20.945Z,7.99
2022-11-29T11:58:20.939Z,7.97
2022-11-29T11:59:20.972Z,7.99
2022-11-29T12:00:34.637Z,7.94
2022-11-29T12:01:20.912Z,8.00
2022-11-29T12:02:20.906Z,8.00
2022-11-29T12:03:20.945Z,8.03
2022-11-29T12:04:20.866Z,8.08
2022-11-29T12:05:20.917Z,8.03
2022-11-29T12:06:20.877Z,8.00
2022-11-29T12:07:33.765Z,7.96
2022-11-29T12:08:21.105Z,7.93
2022-11-29T12:09:20.803Z,7.93
2022-11-29T12:10:20.801Z,7.94
2022-11-29T12:11:20.823Z,7.99
2022-11-29T12:12:20.788Z,8.00
2022-11-29T12:13:20.771Z,7.99
2022-11-29T12:14:20.743Z,8.00
2022-11-29T12:15:20.847Z,7.97
2022-11-29T12:16:20.777Z,7.94
2022-11-29T12:17:20.977Z,7.87
2022-11-29T12:18:20.701Z,7.82
2022-11-29T12:19:20.736Z,7.82
2022-11-29T12:20:20.723Z,7.82
2022-11-29T12:21:20.720Z,7.84
2022-11-29T12:22:20.675Z,7.82
2022-11-29T12:23:20.672Z,7.79
2022-11-29T12:24:20.656Z,7.79
2022-11-29T12:25:20.651Z,7.82
2022-11-29T12:26:54.925Z,7.81
2022-11-29T12:27:20.627Z,7.77
2022-11-29T12:28:21.092Z,7.78
2022-11-29T12:29:20.645Z,7.78
2022-11-29T12:30:20.708Z,7.79
2022-11-29T12:31:26.322Z,7.82
2022-11-29T12:32:21.606Z,7.85
2022-11-29T12:42:11.888Z,8.08
2022-11-29T12:43:12.400Z,8.11
2022-11-29T12:44:12.491Z,8.14
2022-11-29T12:45:12.384Z,8.15
2022-11-29T12:46:12.378Z,8.17
2022-11-29T12:47:34.647Z,8.17
2022-11-29T12:48:12.296Z,8.12
2022-11-29T12:49:12.252Z,8.04
2022-11-29T12:50:12.315Z,8.04
2022-11-29T12:51:12.289Z,8.02
2022-11-29T12:52:12.655Z,8.07
2022-11-29T12:53:13.029Z,8.07
2022-11-29T12:56:20.430Z,7.94
2022-11-29T12:57:19.866Z,7.96
2022-11-29T12:58:20.726Z,7.94
2022-11-29T12:59:19.811Z,7.97
2022-11-29T13:00:19.986Z,8.00
2022-11-29T13:01:20.423Z,8.03
2022-11-29T13:02:37.315Z,8.00
2022-11-29T13:03:20.824Z,8.07
2022-11-29T13:04:19.815Z,8.10
2022-11-29T13:06:02.921Z,8.11
2022-11-29T13:06:21.067Z,8.10
2022-11-29T13:07:21.970Z,8.10
2022-11-29T13:08:20.301Z,8.12
2022-11-29T13:09:20.608Z,8.17
2022-11-29T13:10:20.377Z,8.14
2022-11-29T13:11:20.782Z,8.10
2022-11-29T13:12:20.791Z,8.07
2022-11-29T13:13:19.936Z,8.10
2022-11-29T13:16:58.597Z,8.17
2022-11-29T13:17:58.321Z,8.18
2022-11-29T13:18:58.374Z,8.15
2022-11-29T13:20:00.560Z,8.14
2022-11-29T13:20:58.966Z,8.11
2022-11-29T13:21:59.798Z,8.11
2022-11-29T13:23:00.891Z,8.12
2022-11-29T13:24:10.898Z,8.14
2022-11-29T13:24:58.626Z,8.14
2022-11-29T13:25:59.013Z,8.15
2022-11-29T13:26:59.198Z,8.15
2022-11-29T13:27:58.758Z,8.17
2022-11-29T13:28:59.340Z,8.17
2022-11-29T13:29:59.439Z,8.18
2022-11-29T13:30:58.475Z,8.18
2022-11-29T13:31:59.751Z,8.20
2022-11-29T13:32:57.510Z,8.14
2022-11-29T13:33:58.040Z,8.08
2022-11-29T13:34:58.024Z,8.11
2022-11-29T13:35:57.994Z,8.08
2022-11-29T13:36:58.036Z,8.08
2022-11-29T13:37:57.991Z,8.07
2022-11-29T13:38:57.967Z,8.07
2022-11-29T13:39:57.965Z,8.08
2022-11-29T13:40:57.931Z,8.08
2022-11-29T13:41:57.951Z,8.11
2022-11-29T13:42:57.995Z,8.08
2022-11-29T13:43:58.006Z,8.07
2022-11-29T13:44:57.896Z,8.12
2022-11-29T13:45:57.882Z,8.15
2022-11-29T13:46:57.870Z,8.21
2022-11-29T13:47:57.861Z,8.21
2022-11-29T13:48:57.890Z,8.21
2022-11-29T13:49:57.853Z,8.28
2022-11-29T13:50:57.844Z,8.29
2022-11-29T13:51:57.867Z,8.29
2022-11-29T13:52:57.821Z,8.25
2022-11-29T13:53:57.794Z,8.26
2022-11-29T13:54:57.814Z,8.26
2022-11-29T13:55:57.794Z,8.25
2022-11-29T13:56:57.755Z,8.21
2022-11-29T13:58:57.765Z,8.22
2022-11-29T13:59:57.770Z,8.25
2022-11-29T14:00:57.754Z,8.28
2022-11-29T14:01:57.743Z,8.28
2022-11-29T14:02:57.750Z,8.26
2022-11-29T14:03:57.732Z,8.25
2022-11-29T14:04:57.675Z,8.21
2022-11-29T14:05:57.711Z,8.20
2022-11-29T14:06:57.660Z,8.17
2022-11-29T14:07:57.708Z,8.20
2022-11-29T14:09:57.806Z,8.17
2022-11-29T14:10:57.916Z,8.12
2022-11-29T14:11:57.631Z,8.17
2022-11-29T14:12:57.752Z,8.15
2022-11-29T14:13:57.604Z,8.15
2022-11-29T14:14:57.709Z,8.11
2022-11-29T14:15:57.615Z,8.12
2022-11-29T14:16:57.905Z,8.15
2022-11-29T14:17:57.707Z,8.14
2022-11-29T14:18:57.812Z,8.18
2022-11-29T14:19:57.550Z,8.21
2022-11-29T14:20:57.561Z,8.20
2022-11-29T14:21:57.799Z,8.22
2022-11-29T14:22:57.561Z,8.21
2022-11-29T14:23:57.504Z,8.21
2022-11-29T14:24:57.485Z,8.25
2022-11-29T14:25:57.463Z,8.21
2022-11-29T14:26:57.467Z,8.20
2022-11-29T14:27:57.632Z,8.26
2022-11-29T14:28:57.440Z,8.25
2022-11-29T14:29:57.459Z,8.22
2022-11-29T14:30:57.512Z,8.25
2022-11-29T14:31:57.415Z,8.25
2022-11-29T14:32:57.394Z,8.28
2022-11-29T14:33:57.386Z,8.26
2022-11-29T14:34:57.444Z,8.28
2022-11-29T14:35:57.398Z,8.29
2022-11-29T14:36:57.442Z,8.32
2022-11-29T14:37:57.466Z,8.30
2022-11-29T14:38:57.330Z,8.29
2022-11-29T14:39:57.484Z,8.26
2022-11-29T14:40:57.298Z,8.26
2022-11-29T14:41:57.366Z,8.25
2022-11-29T14:42:57.360Z,8.22
2022-11-29T14:43:57.284Z,8.21
2022-11-29T14:44:57.364Z,8.21
2022-11-29T14:45:57.324Z,8.22
2022-11-29T14:46:57.312Z,8.22
2022-11-29T14:47:57.233Z,8.26
2022-11-29T14:48:57.270Z,8.26
2022-11-29T14:49:57.230Z,8.25
2022-11-29T14:50:57.234Z,8.25
2022-11-29T14:51:57.250Z,8.26
2022-11-29T14:52:57.229Z,8.29
2022-11-29T14:53:57.197Z,8.22
2022-11-29T14:54:57.430Z,8.25